sensor_id;sensor_type;location;lat;lon;timestamp;temperature;humidity
4518;DHT22;2271;49.464;11.070;2023-08-31T00:01:49;16.10;99.90
4518;DHT22;2271;49.464;11.070;2023-08-31T00:04:15;16.20;99.90
4518;DHT22;2271;49.464;11.070;2023-08-31T00:06:41;16.10;99.90
4518;DHT22;2271;49.464;11.070;2023-08-31T00:09:07;16.10;99.90
4518;DHT22;2271;49.464;11.070;2023-08-31T00:11:35;16.10;99.90
4518;DHT22;2271;49.464;11.070;2023-08-31T00:14:01;16.20;99.90
4518;DHT22;2271;49.464;11.070;2023-08-31T00:16:27;16.20;99.90
4518;DHT22;2271;49.464;11.070;2023-08-31T00:18:53;16.10;99.90
4518;DHT22;2271;49.464;11.070;2023-08-31T00:21:20;16.10;99.90
4518;DHT22;2271;49.464;11.070;2023-08-31T00:23:46;16.10;99.90
4518;DHT22;2271;49.464;11.070;2023-08-31T00:26:12;16.10;99.90
4518;DHT22;2271;49.464;11.070;2023-08-31T00:28:38;16.10;99.90
4518;DHT22;2271;49.464;11.070;2023-08-31T00:31:04;16.10;99.90
4518;DHT22;2271;49.464;11.070;2023-08-31T00:33:30;16.10;99.90
4518;DHT22;2271;49.464;11.070;2023-08-31T00:36:00;16.10;99.90
4518;DHT22;2271;49.464;11.070;2023-08-31T00:38:27;16.00;99.90
4518;DHT22;2271;49.464;11.070;2023-08-31T00:40:53;16.00;99.90
4518;DHT22;2271;49.464;11.070;2023-08-31T00:43:20;16.00;99.90
4518;DHT22;2271;49.464;11.070;2023-08-31T00:45:48;15.90;99.90
4518;DHT22;2271;49.464;11.070;2023-08-31T00:48:15;15.90;99.90
4518;DHT22;2271;49.464;11.070;2023-08-31T00:50:47;15.90;99.90
4518;DHT22;2271;49.464;11.070;2023-08-31T00:53:14;15.90;99.90
4518;DHT22;2271;49.464;11.070;2023-08-31T00:55:40;15.90;99.90
4518;DHT22;2271;49.464;11.070;2023-08-31T00:58:07;15.90;99.90
4518;DHT22;2271;49.464;11.070;2023-08-31T01:01:00;15.90;99.90
4518;DHT22;2271;49.464;11.070;2023-08-31T01:04:14;15.90;99.90
4518;DHT22;2271;49.464;11.070;2023-08-31T01:09:40;15.90;99.90
4518;DHT22;2271;49.464;11.070;2023-08-31T01:12:37;15.90;99.90
4518;DHT22;2271;49.464;11.070;2023-08-31T01:15:05;15.80;99.90
4518;DHT22;2271;49.464;11.070;2023-08-31T01:17:37;15.80;99.90
4518;DHT22;2271;49.464;11.070;2023-08-31T01:20:04;15.90;99.90
4518;DHT22;2271;49.464;11.070;2023-08-31T01:22:48;15.90;99.90
4518;DHT22;2271;49.464;11.070;2023-08-31T01:25:17;15.90;99.90
4518;DHT22;2271;49.464;11.070;2023-08-31T01:27:43;15.90;99.90
4518;DHT22;2271;49.464;11.070;2023-08-31T01:30:09;15.90;99.90
4518;DHT22;2271;49.464;11.070;2023-08-31T01:32:35;15.90;99.90
4518;DHT22;2271;49.464;11.070;2023-08-31T01:35:03;15.90;99.90
4518;DHT22;2271;49.464;11.070;2023-08-31T01:40:00;15.80;99.90
4518;DHT22;2271;49.464;11.070;2023-08-31T01:42:29;15.80;99.90
4518;DHT22;2271;49.464;11.070;2023-08-31T01:44:56;15.90;99.90
4518;DHT22;2271;49.464;11.070;2023-08-31T01:47:23;15.90;99.90
4518;DHT22;2271;49.464;11.070;2023-08-31T01:49:50;15.90;99.90
4518;DHT22;2271;49.464;11.070;2023-08-31T01:52:16;15.90;99.90
4518;DHT22;2271;49.464;11.070;2023-08-31T01:54:42;15.90;99.90
4518;DHT22;2271;49.464;11.070;2023-08-31T01:57:07;15.90;99.90
4518;DHT22;2271;49.464;11.070;2023-08-31T01:59:34;15.90;99.90
4518;DHT22;2271;49.464;11.070;2023-08-31T02:02:00;15.90;99.90
4518;DHT22;2271;49.464;11.070;2023-08-31T02:04:26;15.90;99.90
4518;DHT22;2271;49.464;11.070;2023-08-31T02:06:52;15.80;99.90
4518;DHT22;2271;49.464;11.070;2023-08-31T02:09:17;15.80;99.90
4518;DHT22;2271;49.464;11.070;2023-08-31T02:11:43;15.80;99.90
4518;DHT22;2271;49.464;11.070;2023-08-31T02:14:08;15.80;99.90
4518;DHT22;2271;49.464;11.070;2023-08-31T02:16:34;15.80;99.90
4518;DHT22;2271;49.464;11.070;2023-08-31T02:19:00;15.80;99.90
4518;DHT22;2271;49.464;11.070;2023-08-31T02:21:25;15.80;99.90
4518;DHT22;2271;49.464;11.070;2023-08-31T02:23:51;15.80;99.90
4518;DHT22;2271;49.464;11.070;2023-08-31T02:26:17;15.80;99.90
4518;DHT22;2271;49.464;11.070;2023-08-31T02:28:43;15.70;99.90
4518;DHT22;2271;49.464;11.070;2023-08-31T02:31:10;15.70;99.90
4518;DHT22;2271;49.464;11.070;2023-08-31T02:33:36;15.70;99.90
4518;DHT22;2271;49.464;11.070;2023-08-31T02:36:02;15.70;99.90
4518;DHT22;2271;49.464;11.070;2023-08-31T02:38:28;15.70;99.90
4518;DHT22;2271;49.464;11.070;2023-08-31T02:40:54;15.60;99.90
4518;DHT22;2271;49.464;11.070;2023-08-31T02:43:19;15.60;99.90
4518;DHT22;2271;49.464;11.070;2023-08-31T02:45:45;15.60;99.90
4518;DHT22;2271;49.464;11.070;2023-08-31T02:48:11;15.60;99.90
4518;DHT22;2271;49.464;11.070;2023-08-31T02:50:37;15.60;99.90
4518;DHT22;2271;49.464;11.070;2023-08-31T02:53:03;15.60;99.90
4518;DHT22;2271;49.464;11.070;2023-08-31T02:55:29;15.60;99.90
4518;DHT22;2271;49.464;11.070;2023-08-31T02:57:57;15.60;99.90
4518;DHT22;2271;49.464;11.070;2023-08-31T03:00:22;15.50;99.90
4518;DHT22;2271;49.464;11.070;2023-08-31T03:02:48;15.50;99.90
4518;DHT22;2271;49.464;11.070;2023-08-31T03:05:18;15.50;99.90
4518;DHT22;2271;49.464;11.070;2023-08-31T03:07:43;15.40;99.90
4518;DHT22;2271;49.464;11.070;2023-08-31T03:10:09;15.40;99.90
4518;DHT22;2271;49.464;11.070;2023-08-31T03:12:36;15.40;99.90
4518;DHT22;2271;49.464;11.070;2023-08-31T03:15:02;15.40;99.90
4518;DHT22;2271;49.464;11.070;2023-08-31T03:17:28;15.40;99.90
4518;DHT22;2271;49.464;11.070;2023-08-31T03:19:53;15.40;99.90
4518;DHT22;2271;49.464;11.070;2023-08-31T03:22:25;15.40;99.90
4518;DHT22;2271;49.464;11.070;2023-08-31T03:24:51;15.30;99.90
4518;DHT22;2271;49.464;11.070;2023-08-31T03:27:16;15.30;99.90
4518;DHT22;2271;49.464;11.070;2023-08-31T03:29:42;15.20;99.90
4518;DHT22;2271;49.464;11.070;2023-08-31T03:32:08;15.20;99.90
4518;DHT22;2271;49.464;11.070;2023-08-31T03:34:34;15.20;99.90
4518;DHT22;2271;49.464;11.070;2023-08-31T03:36:59;15.20;99.90
4518;DHT22;2271;49.464;11.070;2023-08-31T03:39:26;15.10;99.90
4518;DHT22;2271;49.464;11.070;2023-08-31T03:41:51;15.10;99.90
4518;DHT22;2271;49.464;11.070;2023-08-31T03:44:17;15.60;99.90
4518;DHT22;2271;49.464;11.070;2023-08-31T03:46:43;16.20;99.90
4518;DHT22;2271;49.464;11.070;2023-08-31T03:49:09;16.50;99.90
4518;DHT22;2271;49.464;11.070;2023-08-31T03:51:35;16.70;99.90
4518;DHT22;2271;49.464;11.070;2023-08-31T03:54:00;16.80;99.90
4518;DHT22;2271;49.464;11.070;2023-08-31T03:56:26;16.90;99.90
4518;DHT22;2271;49.464;11.070;2023-08-31T03:58:52;17.00;99.90
4518;DHT22;2271;49.464;11.070;2023-08-31T04:01:18;17.20;99.90
4518;DHT22;2271;49.464;11.070;2023-08-31T04:03:44;17.20;99.90
4518;DHT22;2271;49.464;11.070;2023-08-31T04:06:10;17.20;99.90
4518;DHT22;2271;49.464;11.070;2023-08-31T04:08:35;17.30;99.90
4518;DHT22;2271;49.464;11.070;2023-08-31T04:11:01;17.30;99.90
4518;DHT22;2271;49.464;11.070;2023-08-31T04:13:28;17.40;99.90
4518;DHT22;2271;49.464;11.070;2023-08-31T04:15:53;17.40;99.90
4518;DHT22;2271;49.464;11.070;2023-08-31T04:18:19;17.40;99.90
4518;DHT22;2271;49.464;11.070;2023-08-31T04:20:49;17.30;99.90
4518;DHT22;2271;49.464;11.070;2023-08-31T04:23:16;17.10;99.90
4518;DHT22;2271;49.464;11.070;2023-08-31T04:25:42;16.90;99.90
4518;DHT22;2271;49.464;11.070;2023-08-31T04:28:08;16.40;99.90
4518;DHT22;2271;49.464;11.070;2023-08-31T04:30:34;16.10;99.90
4518;DHT22;2271;49.464;11.070;2023-08-31T04:32:59;15.80;99.90
4518;DHT22;2271;49.464;11.070;2023-08-31T04:35:25;15.50;99.90
4518;DHT22;2271;49.464;11.070;2023-08-31T04:37:51;15.40;99.90
4518;DHT22;2271;49.464;11.070;2023-08-31T04:40:16;15.40;99.90
4518;DHT22;2271;49.464;11.070;2023-08-31T04:42:42;15.30;99.90
4518;DHT22;2271;49.464;11.070;2023-08-31T04:45:08;15.20;99.90
4518;DHT22;2271;49.464;11.070;2023-08-31T04:47:35;15.20;99.90
4518;DHT22;2271;49.464;11.070;2023-08-31T04:50:01;15.10;99.90
4518;DHT22;2271;49.464;11.070;2023-08-31T04:52:27;15.10;99.90
4518;DHT22;2271;49.464;11.070;2023-08-31T04:54:52;15.00;99.90
4518;DHT22;2271;49.464;11.070;2023-08-31T04:57:18;15.00;99.90
4518;DHT22;2271;49.464;11.070;2023-08-31T04:59:45;15.00;99.90
4518;DHT22;2271;49.464;11.070;2023-08-31T05:02:10;15.00;99.90
4518;DHT22;2271;49.464;11.070;2023-08-31T05:04:36;14.90;99.90
4518;DHT22;2271;49.464;11.070;2023-08-31T05:07:02;14.90;99.90
4518;DHT22;2271;49.464;11.070;2023-08-31T05:09:28;14.90;99.90
4518;DHT22;2271;49.464;11.070;2023-08-31T05:11:58;14.90;99.90
4518;DHT22;2271;49.464;11.070;2023-08-31T05:14:24;14.90;99.90
4518;DHT22;2271;49.464;11.070;2023-08-31T05:16:50;15.00;99.90
4518;DHT22;2271;49.464;11.070;2023-08-31T05:19:16;15.00;99.90
4518;DHT22;2271;49.464;11.070;2023-08-31T05:21:41;15.10;99.90
4518;DHT22;2271;49.464;11.070;2023-08-31T05:24:07;15.10;99.90
4518;DHT22;2271;49.464;11.070;2023-08-31T05:26:33;15.20;99.90
4518;DHT22;2271;49.464;11.070;2023-08-31T05:28:58;15.20;99.90
4518;DHT22;2271;49.464;11.070;2023-08-31T05:31:24;15.10;99.90
4518;DHT22;2271;49.464;11.070;2023-08-31T05:33:50;15.20;99.90
4518;DHT22;2271;49.464;11.070;2023-08-31T05:36:15;15.10;99.90
4518;DHT22;2271;49.464;11.070;2023-08-31T05:38:41;15.10;99.90
4518;DHT22;2271;49.464;11.070;2023-08-31T05:41:07;15.10;99.90
4518;DHT22;2271;49.464;11.070;2023-08-31T05:43:35;15.10;99.90
4518;DHT22;2271;49.464;11.070;2023-08-31T05:46:01;15.10;99.90
4518;DHT22;2271;49.464;11.070;2023-08-31T05:48:28;15.40;99.90
4518;DHT22;2271;49.464;11.070;2023-08-31T05:50:54;15.90;99.90
4518;DHT22;2271;49.464;11.070;2023-08-31T05:53:20;16.30;99.90
4518;DHT22;2271;49.464;11.070;2023-08-31T05:55:46;17.00;99.90
4518;DHT22;2271;49.464;11.070;2023-08-31T05:58:12;17.80;99.90
4518;DHT22;2271;49.464;11.070;2023-08-31T06:00:38;18.80;99.90
4518;DHT22;2271;49.464;11.070;2023-08-31T06:03:04;19.10;99.90
4518;DHT22;2271;49.464;11.070;2023-08-31T06:05:31;19.10;99.90
4518;DHT22;2271;49.464;11.070;2023-08-31T06:07:57;19.50;99.90
4518;DHT22;2271;49.464;11.070;2023-08-31T06:10:23;19.90;99.90
4518;DHT22;2271;49.464;11.070;2023-08-31T06:12:50;20.30;99.90
4518;DHT22;2271;49.464;11.070;2023-08-31T06:15:16;20.50;99.90
4518;DHT22;2271;49.464;11.070;2023-08-31T06:17:43;20.50;99.90
4518;DHT22;2271;49.464;11.070;2023-08-31T06:20:09;20.60;99.90
4518;DHT22;2271;49.464;11.070;2023-08-31T06:22:35;20.70;99.90
4518;DHT22;2271;49.464;11.070;2023-08-31T06:25:01;20.60;99.90
4518;DHT22;2271;49.464;11.070;2023-08-31T06:27:28;20.80;99.90
4518;DHT22;2271;49.464;11.070;2023-08-31T06:29:54;20.80;99.90
4518;DHT22;2271;49.464;11.070;2023-08-31T06:32:19;20.60;99.90
4518;DHT22;2271;49.464;11.070;2023-08-31T06:34:46;20.70;99.90
4518;DHT22;2271;49.464;11.070;2023-08-31T06:37:12;20.70;99.90
4518;DHT22;2271;49.464;11.070;2023-08-31T06:39:37;20.70;99.90
4518;DHT22;2271;49.464;11.070;2023-08-31T06:42:04;20.70;99.90
4518;DHT22;2271;49.464;11.070;2023-08-31T06:44:30;20.40;99.90
4518;DHT22;2271;49.464;11.070;2023-08-31T06:46:56;19.80;99.90
4518;DHT22;2271;49.464;11.070;2023-08-31T06:49:25;19.70;99.90
4518;DHT22;2271;49.464;11.070;2023-08-31T06:51:50;19.50;99.90
4518;DHT22;2271;49.464;11.070;2023-08-31T06:54:16;19.00;99.90
4518;DHT22;2271;49.464;11.070;2023-08-31T06:56:42;19.00;99.90
4518;DHT22;2271;49.464;11.070;2023-08-31T06:59:07;19.20;99.90
4518;DHT22;2271;49.464;11.070;2023-08-31T07:01:33;19.40;99.90
4518;DHT22;2271;49.464;11.070;2023-08-31T07:03:59;19.30;99.90
4518;DHT22;2271;49.464;11.070;2023-08-31T07:06:24;19.00;99.90
4518;DHT22;2271;49.464;11.070;2023-08-31T07:08:50;18.50;99.90
4518;DHT22;2271;49.464;11.070;2023-08-31T07:11:17;18.20;99.90
4518;DHT22;2271;49.464;11.070;2023-08-31T07:13:43;17.90;99.90
4518;DHT22;2271;49.464;11.070;2023-08-31T07:16:08;18.10;99.90
4518;DHT22;2271;49.464;11.070;2023-08-31T07:18:35;18.40;99.90
4518;DHT22;2271;49.464;11.070;2023-08-31T07:21:02;18.80;99.90
4518;DHT22;2271;49.464;11.070;2023-08-31T07:23:28;19.10;99.90
4518;DHT22;2271;49.464;11.070;2023-08-31T07:25:56;19.50;99.90
4518;DHT22;2271;49.464;11.070;2023-08-31T07:28:23;19.60;99.90
4518;DHT22;2271;49.464;11.070;2023-08-31T07:30:49;20.00;99.90
4518;DHT22;2271;49.464;11.070;2023-08-31T07:33:14;20.20;99.90
4518;DHT22;2271;49.464;11.070;2023-08-31T07:35:40;20.40;99.90
4518;DHT22;2271;49.464;11.070;2023-08-31T07:38:06;20.40;99.90
4518;DHT22;2271;49.464;11.070;2023-08-31T07:40:31;20.60;99.90
4518;DHT22;2271;49.464;11.070;2023-08-31T07:42:57;20.90;99.90
4518;DHT22;2271;49.464;11.070;2023-08-31T07:45:23;21.00;99.90
4518;DHT22;2271;49.464;11.070;2023-08-31T07:47:48;21.20;99.90
4518;DHT22;2271;49.464;11.070;2023-08-31T07:50:14;21.00;99.90
4518;DHT22;2271;49.464;11.070;2023-08-31T07:52:40;20.60;99.90
4518;DHT22;2271;49.464;11.070;2023-08-31T07:55:06;20.40;99.90
4518;DHT22;2271;49.464;11.070;2023-08-31T07:57:31;20.30;99.90
4518;DHT22;2271;49.464;11.070;2023-08-31T07:59:57;20.20;99.90
4518;DHT22;2271;49.464;11.070;2023-08-31T08:02:23;20.20;99.90
4518;DHT22;2271;49.464;11.070;2023-08-31T08:04:49;20.00;99.90
4518;DHT22;2271;49.464;11.070;2023-08-31T08:07:15;19.60;99.90
4518;DHT22;2271;49.464;11.070;2023-08-31T08:09:41;19.50;99.90
4518;DHT22;2271;49.464;11.070;2023-08-31T08:12:07;19.60;99.90
4518;DHT22;2271;49.464;11.070;2023-08-31T08:14:32;19.80;99.90
4518;DHT22;2271;49.464;11.070;2023-08-31T08:16:58;19.90;99.90
4518;DHT22;2271;49.464;11.070;2023-08-31T08:19:24;20.30;99.90
4518;DHT22;2271;49.464;11.070;2023-08-31T08:21:50;20.40;99.90
4518;DHT22;2271;49.464;11.070;2023-08-31T08:24:16;20.70;99.90
4518;DHT22;2271;49.464;11.070;2023-08-31T08:26:42;20.50;99.90
4518;DHT22;2271;49.464;11.070;2023-08-31T08:29:08;20.10;99.90
4518;DHT22;2271;49.464;11.070;2023-08-31T08:31:33;19.60;99.90
4518;DHT22;2271;49.464;11.070;2023-08-31T08:33:59;19.10;99.90
4518;DHT22;2271;49.464;11.070;2023-08-31T08:36:25;18.90;99.90
4518;DHT22;2271;49.464;11.070;2023-08-31T08:38:51;18.80;99.90
4518;DHT22;2271;49.464;11.070;2023-08-31T08:41:23;18.80;99.90
4518;DHT22;2271;49.464;11.070;2023-08-31T08:43:49;18.70;99.90
4518;DHT22;2271;49.464;11.070;2023-08-31T08:46:15;18.60;99.90
4518;DHT22;2271;49.464;11.070;2023-08-31T08:48:41;18.40;99.90
4518;DHT22;2271;49.464;11.070;2023-08-31T08:51:08;18.30;99.90
4518;DHT22;2271;49.464;11.070;2023-08-31T08:53:34;18.70;99.90
4518;DHT22;2271;49.464;11.070;2023-08-31T08:56:00;19.50;99.90
4518;DHT22;2271;49.464;11.070;2023-08-31T08:58:25;20.30;99.90
4518;DHT22;2271;49.464;11.070;2023-08-31T09:00:54;20.60;99.90
4518;DHT22;2271;49.464;11.070;2023-08-31T09:03:22;21.10;99.90
4518;DHT22;2271;49.464;11.070;2023-08-31T09:05:48;21.10;99.90
4518;DHT22;2271;49.464;11.070;2023-08-31T09:08:14;20.90;99.90
4518;DHT22;2271;49.464;11.070;2023-08-31T09:10:42;20.60;99.90
4518;DHT22;2271;49.464;11.070;2023-08-31T09:13:13;20.20;99.90
4518;DHT22;2271;49.464;11.070;2023-08-31T09:15:43;19.70;99.90
4518;DHT22;2271;49.464;11.070;2023-08-31T09:18:30;19.30;99.90
4518;DHT22;2271;49.464;11.070;2023-08-31T09:21:00;19.00;99.90
4518;DHT22;2271;49.464;11.070;2023-08-31T09:23:26;18.80;99.90
4518;DHT22;2271;49.464;11.070;2023-08-31T09:25:54;18.60;99.90
4518;DHT22;2271;49.464;11.070;2023-08-31T09:28:22;18.50;99.90
4518;DHT22;2271;49.464;11.070;2023-08-31T09:30:49;18.40;99.90
4518;DHT22;2271;49.464;11.070;2023-08-31T09:33:19;18.30;99.90
4518;DHT22;2271;49.464;11.070;2023-08-31T09:35:59;18.30;99.90
4518;DHT22;2271;49.464;11.070;2023-08-31T09:38:29;18.60;99.90
4518;DHT22;2271;49.464;11.070;2023-08-31T09:41:05;19.20;99.90
4518;DHT22;2271;49.464;11.070;2023-08-31T09:43:33;20.00;99.90
4518;DHT22;2271;49.464;11.070;2023-08-31T09:46:00;20.60;99.90
4518;DHT22;2271;49.464;11.070;2023-08-31T09:48:29;21.00;99.90
4518;DHT22;2271;49.464;11.070;2023-08-31T09:50:55;21.30;99.90
4518;DHT22;2271;49.464;11.070;2023-08-31T09:53:21;21.10;99.90
4518;DHT22;2271;49.464;11.070;2023-08-31T09:55:48;21.10;99.90
4518;DHT22;2271;49.464;11.070;2023-08-31T09:58:18;21.00;99.90
4518;DHT22;2271;49.464;11.070;2023-08-31T10:00:46;20.80;99.90
4518;DHT22;2271;49.464;11.070;2023-08-31T10:03:12;20.40;99.90
4518;DHT22;2271;49.464;11.070;2023-08-31T10:05:44;20.50;99.90
4518;DHT22;2271;49.464;11.070;2023-08-31T10:08:11;21.00;99.90
4518;DHT22;2271;49.464;11.070;2023-08-31T10:10:37;21.50;99.90
4518;DHT22;2271;49.464;11.070;2023-08-31T10:13:05;21.90;99.90
4518;DHT22;2271;49.464;11.070;2023-08-31T10:15:35;21.90;99.90
4518;DHT22;2271;49.464;11.070;2023-08-31T10:18:03;21.80;99.90
4518;DHT22;2271;49.464;11.070;2023-08-31T10:20:29;21.40;99.90
4518;DHT22;2271;49.464;11.070;2023-08-31T10:23:03;20.90;99.90
4518;DHT22;2271;49.464;11.070;2023-08-31T10:28:21;19.90;99.90
4518;DHT22;2271;49.464;11.070;2023-08-31T10:33:27;19.50;99.90
4518;DHT22;2271;49.464;11.070;2023-08-31T10:35:56;19.30;99.90
4518;DHT22;2271;49.464;11.070;2023-08-31T10:38:28;19.20;99.90
4518;DHT22;2271;49.464;11.070;2023-08-31T10:41:17;19.10;99.90
4518;DHT22;2271;49.464;11.070;2023-08-31T10:43:57;19.00;99.90
4518;DHT22;2271;49.464;11.070;2023-08-31T10:46:36;18.90;99.90
4518;DHT22;2271;49.464;11.070;2023-08-31T10:51:45;18.80;99.90
4518;DHT22;2271;49.464;11.070;2023-08-31T10:54:20;18.70;99.90
4518;DHT22;2271;49.464;11.070;2023-08-31T10:59:50;18.80;99.90
4518;DHT22;2271;49.464;11.070;2023-08-31T11:07:26;19.50;99.90
4518;DHT22;2271;49.464;11.070;2023-08-31T11:10:06;19.60;99.90
4518;DHT22;2271;49.464;11.070;2023-08-31T11:12:32;19.50;99.90
4518;DHT22;2271;49.464;11.070;2023-08-31T11:14:58;19.60;99.90
4518;DHT22;2271;49.464;11.070;2023-08-31T11:17:24;19.80;99.90
4518;DHT22;2271;49.464;11.070;2023-08-31T11:19:50;20.10;99.90
4518;DHT22;2271;49.464;11.070;2023-08-31T11:22:15;20.40;99.90
4518;DHT22;2271;49.464;11.070;2023-08-31T11:24:41;20.40;99.90
4518;DHT22;2271;49.464;11.070;2023-08-31T11:27:08;20.30;99.90
4518;DHT22;2271;49.464;11.070;2023-08-31T11:29:43;20.10;99.90
4518;DHT22;2271;49.464;11.070;2023-08-31T11:32:09;20.00;99.90
4518;DHT22;2271;49.464;11.070;2023-08-31T11:34:35;19.90;99.90
4518;DHT22;2271;49.464;11.070;2023-08-31T11:37:02;19.90;99.90
4518;DHT22;2271;49.464;11.070;2023-08-31T11:39:28;19.90;99.90
4518;DHT22;2271;49.464;11.070;2023-08-31T11:41:54;19.80;99.90
4518;DHT22;2271;49.464;11.070;2023-08-31T11:44:20;19.70;99.90
4518;DHT22;2271;49.464;11.070;2023-08-31T11:46:46;19.60;99.90
4518;DHT22;2271;49.464;11.070;2023-08-31T11:49:19;19.90;99.90
4518;DHT22;2271;49.464;11.070;2023-08-31T11:51:46;20.00;99.90
4518;DHT22;2271;49.464;11.070;2023-08-31T11:54:11;19.90;99.90
4518;DHT22;2271;49.464;11.070;2023-08-31T11:56:42;19.90;99.90
4518;DHT22;2271;49.464;11.070;2023-08-31T11:59:12;19.80;99.90
4518;DHT22;2271;49.464;11.070;2023-08-31T12:01:42;19.60;99.90
4518;DHT22;2271;49.464;11.070;2023-08-31T12:04:26;19.60;99.90
4518;DHT22;2271;49.464;11.070;2023-08-31T12:06:53;19.70;99.90
4518;DHT22;2271;49.464;11.070;2023-08-31T12:09:27;19.70;99.90
4518;DHT22;2271;49.464;11.070;2023-08-31T12:11:53;19.80;99.90
4518;DHT22;2271;49.464;11.070;2023-08-31T12:14:28;20.00;99.90
4518;DHT22;2271;49.464;11.070;2023-08-31T12:17:02;20.00;99.90
4518;DHT22;2271;49.464;11.070;2023-08-31T12:19:29;20.00;99.90
4518;DHT22;2271;49.464;11.070;2023-08-31T12:21:55;20.10;99.90
4518;DHT22;2271;49.464;11.070;2023-08-31T12:24:21;20.20;99.90
4518;DHT22;2271;49.464;11.070;2023-08-31T12:26:49;20.30;99.90
4518;DHT22;2271;49.464;11.070;2023-08-31T12:29:15;20.50;99.90
4518;DHT22;2271;49.464;11.070;2023-08-31T12:31:40;20.50;99.90
4518;DHT22;2271;49.464;11.070;2023-08-31T12:34:06;20.60;99.90
4518;DHT22;2271;49.464;11.070;2023-08-31T12:36:33;20.50;99.90
4518;DHT22;2271;49.464;11.070;2023-08-31T12:38:59;20.40;99.90
4518;DHT22;2271;49.464;11.070;2023-08-31T12:41:27;20.30;99.90
4518;DHT22;2271;49.464;11.070;2023-08-31T12:43:54;20.30;99.90
4518;DHT22;2271;49.464;11.070;2023-08-31T12:46:19;20.20;99.90
4518;DHT22;2271;49.464;11.070;2023-08-31T12:48:45;20.20;99.90
4518;DHT22;2271;49.464;11.070;2023-08-31T12:51:11;20.20;99.90
4518;DHT22;2271;49.464;11.070;2023-08-31T12:53:39;20.20;99.90
4518;DHT22;2271;49.464;11.070;2023-08-31T12:56:05;20.20;99.90
4518;DHT22;2271;49.464;11.070;2023-08-31T12:58:32;20.20;99.90
4518;DHT22;2271;49.464;11.070;2023-08-31T13:00:58;20.30;99.90
4518;DHT22;2271;49.464;11.070;2023-08-31T13:03:24;20.20;99.90
4518;DHT22;2271;49.464;11.070;2023-08-31T13:05:50;20.20;99.90
4518;DHT22;2271;49.464;11.070;2023-08-31T13:08:16;20.20;99.90
4518;DHT22;2271;49.464;11.070;2023-08-31T13:10:42;20.30;99.90
4518;DHT22;2271;49.464;11.070;2023-08-31T13:13:09;20.20;99.90
4518;DHT22;2271;49.464;11.070;2023-08-31T13:15:35;20.30;99.90
4518;DHT22;2271;49.464;11.070;2023-08-31T13:18:00;20.30;99.90
4518;DHT22;2271;49.464;11.070;2023-08-31T13:20:26;20.40;99.90
4518;DHT22;2271;49.464;11.070;2023-08-31T13:22:53;20.30;99.90
4518;DHT22;2271;49.464;11.070;2023-08-31T13:25:18;20.30;99.90
4518;DHT22;2271;49.464;11.070;2023-08-31T13:27:44;20.40;99.90
4518;DHT22;2271;49.464;11.070;2023-08-31T13:30:10;20.60;99.90
4518;DHT22;2271;49.464;11.070;2023-08-31T13:32:38;20.80;99.90
4518;DHT22;2271;49.464;11.070;2023-08-31T13:35:04;20.70;99.90
4518;DHT22;2271;49.464;11.070;2023-08-31T13:37:33;20.40;99.90
4518;DHT22;2271;49.464;11.070;2023-08-31T13:39:59;20.60;99.90
4518;DHT22;2271;49.464;11.070;2023-08-31T13:42:25;20.70;99.90
4518;DHT22;2271;49.464;11.070;2023-08-31T13:44:51;20.80;99.90
4518;DHT22;2271;49.464;11.070;2023-08-31T13:47:17;20.90;99.90
4518;DHT22;2271;49.464;11.070;2023-08-31T13:49:43;21.00;99.90
4518;DHT22;2271;49.464;11.070;2023-08-31T13:52:08;21.00;99.90
4518;DHT22;2271;49.464;11.070;2023-08-31T13:54:36;21.00;99.90
4518;DHT22;2271;49.464;11.070;2023-08-31T13:57:01;21.00;99.90
4518;DHT22;2271;49.464;11.070;2023-08-31T13:59:27;21.00;99.90
4518;DHT22;2271;49.464;11.070;2023-08-31T14:01:54;21.00;99.90
4518;DHT22;2271;49.464;11.070;2023-08-31T14:04:20;21.00;99.90
4518;DHT22;2271;49.464;11.070;2023-08-31T14:06:45;20.90;99.90
4518;DHT22;2271;49.464;11.070;2023-08-31T14:09:11;20.80;99.90
4518;DHT22;2271;49.464;11.070;2023-08-31T14:11:37;20.70;99.90
4518;DHT22;2271;49.464;11.070;2023-08-31T14:14:04;20.80;99.90
4518;DHT22;2271;49.464;11.070;2023-08-31T14:16:37;20.80;99.90
4518;DHT22;2271;49.464;11.070;2023-08-31T14:19:04;21.00;99.90
4518;DHT22;2271;49.464;11.070;2023-08-31T14:21:29;20.90;99.90
4518;DHT22;2271;49.464;11.070;2023-08-31T14:23:55;20.80;99.90
4518;DHT22;2271;49.464;11.070;2023-08-31T14:26:24;20.70;99.90
4518;DHT22;2271;49.464;11.070;2023-08-31T14:28:51;20.60;99.90
4518;DHT22;2271;49.464;11.070;2023-08-31T14:31:17;20.50;99.90
4518;DHT22;2271;49.464;11.070;2023-08-31T14:33:43;20.30;99.90
4518;DHT22;2271;49.464;11.070;2023-08-31T14:36:09;20.20;99.90
4518;DHT22;2271;49.464;11.070;2023-08-31T14:38:35;20.10;99.90
4518;DHT22;2271;49.464;11.070;2023-08-31T14:41:00;20.00;99.90
4518;DHT22;2271;49.464;11.070;2023-08-31T14:43:26;20.00;99.90
4518;DHT22;2271;49.464;11.070;2023-08-31T14:45:52;20.00;99.90
4518;DHT22;2271;49.464;11.070;2023-08-31T14:48:17;19.90;99.90
4518;DHT22;2271;49.464;11.070;2023-08-31T14:50:43;19.80;99.90
4518;DHT22;2271;49.464;11.070;2023-08-31T14:53:09;19.80;99.90
4518;DHT22;2271;49.464;11.070;2023-08-31T14:55:36;19.80;99.90
4518;DHT22;2271;49.464;11.070;2023-08-31T14:58:01;19.80;99.90
4518;DHT22;2271;49.464;11.070;2023-08-31T15:00:27;19.90;99.90
4518;DHT22;2271;49.464;11.070;2023-08-31T15:02:53;19.90;99.90
4518;DHT22;2271;49.464;11.070;2023-08-31T15:05:18;20.00;99.90
4518;DHT22;2271;49.464;11.070;2023-08-31T15:07:44;20.10;99.90
4518;DHT22;2271;49.464;11.070;2023-08-31T15:10:10;20.10;99.90
4518;DHT22;2271;49.464;11.070;2023-08-31T15:12:36;20.20;99.90
4518;DHT22;2271;49.464;11.070;2023-08-31T15:15:03;20.20;99.90
4518;DHT22;2271;49.464;11.070;2023-08-31T15:17:31;20.10;99.90
4518;DHT22;2271;49.464;11.070;2023-08-31T15:19:56;20.10;99.90
4518;DHT22;2271;49.464;11.070;2023-08-31T15:24:53;19.90;99.90
4518;DHT22;2271;49.464;11.070;2023-08-31T15:27:19;19.80;99.90
4518;DHT22;2271;49.464;11.070;2023-08-31T15:29:44;19.80;99.90
4518;DHT22;2271;49.464;11.070;2023-08-31T15:32:11;19.90;99.90
4518;DHT22;2271;49.464;11.070;2023-08-31T15:34:37;19.90;99.90
4518;DHT22;2271;49.464;11.070;2023-08-31T15:37:03;19.80;99.90
4518;DHT22;2271;49.464;11.070;2023-08-31T15:39:28;19.80;99.90
4518;DHT22;2271;49.464;11.070;2023-08-31T15:41:54;19.80;99.90
4518;DHT22;2271;49.464;11.070;2023-08-31T15:44:20;19.80;99.90
4518;DHT22;2271;49.464;11.070;2023-08-31T15:46:45;19.80;99.90
4518;DHT22;2271;49.464;11.070;2023-08-31T15:49:12;19.80;99.90
4518;DHT22;2271;49.464;11.070;2023-08-31T15:51:37;19.80;99.90
4518;DHT22;2271;49.464;11.070;2023-08-31T15:54:03;19.80;99.90
4518;DHT22;2271;49.464;11.070;2023-08-31T15:56:30;19.80;99.90
4518;DHT22;2271;49.464;11.070;2023-08-31T15:58:58;19.80;99.90
4518;DHT22;2271;49.464;11.070;2023-08-31T16:01:23;19.80;99.90
4518;DHT22;2271;49.464;11.070;2023-08-31T16:03:49;19.70;99.90
4518;DHT22;2271;49.464;11.070;2023-08-31T16:06:15;19.70;99.90
4518;DHT22;2271;49.464;11.070;2023-08-31T16:08:40;19.70;99.90